createdAt,value
2023-03-26T00:00:54.180Z,100742.78
2023-03-26T00:03:20.954Z,100738.97
2023-03-26T00:05:48.192Z,100738.97
2023-03-26T00:08:16.849Z,100733.69
2023-03-26T00:10:44.206Z,100738.22
2023-03-26T00:13:11.263Z,100742.38
2023-03-26T00:15:38.054Z,100735.19
2023-03-26T00:18:04.546Z,100731.03
2023-03-26T00:20:34.116Z,100722.78
2023-03-26T00:23:01.792Z,100730.38
2023-03-26T00:25:28.246Z,100729.31
2023-03-26T00:27:54.834Z,100725.91
2023-03-26T00:30:21.530Z,100726.66
2023-03-26T00:32:53.820Z,100726.66
2023-03-26T00:35:20.895Z,100720.63
2023-03-26T00:37:47.839Z,100722.84
2023-03-26T00:40:14.590Z,100710.34
2023-03-26T00:42:42.489Z,100706.97
2023-03-26T00:45:09.573Z,100694.91
2023-03-26T00:47:36.643Z,100692.34
2023-03-26T00:50:04.294Z,100695.72
2023-03-26T00:52:31.574Z,100699.94
2023-03-26T00:54:58.082Z,100687.88
2023-03-26T00:57:36.011Z,100686.72
2023-03-26T01:00:16.797Z,100682.56
2023-03-26T01:02:45.071Z,100686.38
2023-03-26T01:05:36.637Z,100685.97
2023-03-26T01:08:15.112Z,100689.34
2023-03-26T01:10:44.170Z,100680.25
2023-03-26T01:13:10.832Z,100676.88
2023-03-26T01:15:37.415Z,100677.63
2023-03-26T01:18:05.516Z,100670.41
2023-03-26T01:20:34.219Z,100667.03
2023-03-26T01:23:05.221Z,100658.34
2023-03-26T01:25:38.996Z,100651.91
2023-03-26T01:28:09.392Z,100651.16
2023-03-26T01:30:42.592Z,100639.06
2023-03-26T01:33:33.780Z,100630.72
2023-03-26T01:36:16.990Z,100641.72
2023-03-26T01:39:01.684Z,100633.38
2023-03-26T01:41:51.159Z,100636.00
2023-03-26T01:44:26.510Z,100629.16
2023-03-26T01:46:53.686Z,100634.78
2023-03-26T01:49:21.330Z,100624.19
2023-03-26T01:51:48.323Z,100623.44
2023-03-26T01:54:19.880Z,100620.06
2023-03-26T01:57:29.467Z,100614.75
2023-03-26T02:00:11.985Z,100607.25
2023-03-26T02:03:19.203Z,100607.97
2023-03-26T02:06:02.966Z,100595.16
2023-03-26T02:08:37.372Z,100597.81
2023-03-26T02:11:11.728Z,100593.69
2023-03-26T02:13:43.884Z,100580.13
2023-03-26T02:16:16.516Z,100579.06
2023-03-26T02:18:44.975Z,100574.16
2023-03-26T02:21:20.394Z,100580.63
2023-03-26T02:23:50.655Z,100581.06
2023-03-26T02:26:19.779Z,100577.97
2023-03-26T02:29:08.714Z,100571.94
2023-03-26T02:31:37.077Z,100570.47
2023-03-26T02:34:03.672Z,100571.94
2023-03-26T02:36:33.515Z,100564.75
2023-03-26T02:39:02.269Z,100563.59
2023-03-26T02:41:32.204Z,100563.19
2023-03-26T02:44:02.665Z,100552.59
2023-03-26T02:46:47.962Z,100555.97
2023-03-26T02:49:37.353Z,100555.56
2023-03-26T02:52:06.386Z,100553.66
2023-03-26T02:54:35.402Z,100550.59
2023-03-26T02:57:12.649Z,100560.34
2023-03-26T02:59:46.307Z,100549.75
2023-03-26T03:02:31.248Z,100547.84
2023-03-26T03:05:10.513Z,100550.50
2023-03-26T03:07:38.631Z,100547.44
2023-03-26T03:10:08.700Z,100540.56
2023-03-26T03:12:55.239Z,100540.56
2023-03-26T03:15:21.737Z,100530.00
2023-03-26T03:17:48.255Z,100537.84
2023-03-26T03:20:15.494Z,100530.22
2023-03-26T03:22:42.624Z,100527.91
2023-03-26T03:25:14.295Z,100533.50
2023-03-26T03:27:42.718Z,100523.66
2023-03-26T03:30:13.542Z,100523.25
2023-03-26T03:32:46.151Z,100525.47
2023-03-26T03:35:16.085Z,100515.97
2023-03-26T03:37:47.369Z,100520.09
2023-03-26T03:40:14.005Z,100515.88
2023-03-26T03:42:41.750Z,100518.09
2023-03-26T03:45:10.317Z,100517.66
2023-03-26T03:47:55.824Z,100513.84
2023-03-26T03:50:32.618Z,100515.34
2023-03-26T03:53:18.646Z,100525.94
2023-03-26T03:55:55.083Z,100522.41
2023-03-26T03:58:27.980Z,100511.09
2023-03-26T04:01:03.050Z,100517.13
2023-03-26T04:04:01.806Z,100511.84
2023-03-26T04:06:43.921Z,100505.38
2023-03-26T04:09:12.954Z,100501.56
2023-03-26T04:11:39.872Z,100497.00
2023-03-26T04:14:28.237Z,100492.47
2023-03-26T04:17:00.517Z,100491.28
2023-03-26T04:19:29.468Z,100481.88
2023-03-26T04:22:02.150Z,100488.22
2023-03-26T04:24:40.212Z,100477.97
2023-03-26T04:27:31.952Z,100475.31
2023-03-26T04:30:21.510Z,100471.50
2023-03-26T04:33:04.240Z,100476.03
2023-03-26T04:35:36.664Z,100467.78
2023-03-26T04:38:06.463Z,100464.72
2023-03-26T04:40:37.368Z,100456.78
2023-03-26T04:43:26.538Z,100446.50
2023-03-26T04:46:14.022Z,100444.91
2023-03-26T04:48:53.822Z,100446.06
2023-03-26T04:51:25.000Z,100429.75
2023-03-26T04:53:57.713Z,100434.75
2023-03-26T04:56:30.704Z,100434.75
2023-03-26T04:59:08.184Z,100428.72
2023-03-26T05:01:40.244Z,100420.75
2023-03-26T05:04:08.751Z,100413.97
2023-03-26T05:06:38.139Z,100413.97
2023-03-26T05:09:11.938Z,100413.97
2023-03-26T05:11:58.754Z,100407.19
2023-03-26T05:14:25.493Z,100413.97
2023-03-26T05:16:55.822Z,100410.59
2023-03-26T05:19:22.776Z,100407.94
2023-03-26T05:21:49.320Z,100399.16
2023-03-26T05:24:16.017Z,100407.84
2023-03-26T05:26:42.970Z,100408.91
2023-03-26T05:29:13.238Z,100394.50
2023-03-26T05:31:44.374Z,100395.22
2023-03-26T05:34:11.206Z,100391.09
2023-03-26T05:36:38.148Z,100386.53
2023-03-26T05:39:16.937Z,100382.72
2023-03-26T05:42:01.889Z,100384.63
2023-03-26T05:44:39.377Z,100378.19
2023-03-26T05:47:15.374Z,100369.81
2023-03-26T05:49:41.973Z,100374.69
2023-03-26T05:52:08.540Z,100372.78
2023-03-26T05:54:53.776Z,100368.22
2023-03-26T05:57:39.399Z,100362.91
2023-03-26T06:00:24.998Z,100364.41
2023-03-26T06:02:56.900Z,100360.28
2023-03-26T06:05:42.991Z,100361.75
2023-03-26T06:08:19.401Z,100352.66
2023-03-26T06:10:57.758Z,100350.75
2023-03-26T06:13:24.362Z,100348.81
2023-03-26T06:15:52.319Z,100343.84
2023-03-26T06:18:31.902Z,100341.19
2023-03-26T06:21:18.163Z,100334.72
2023-03-26T06:23:49.986Z,100339.59
2023-03-26T06:26:34.542Z,100333.88
2023-03-26T06:29:30.059Z,100334.19
2023-03-26T06:32:18.403Z,100334.09
2023-03-26T06:34:52.579Z,100323.78
2023-03-26T06:37:19.145Z,100330.88
2023-03-26T06:39:46.909Z,100328.22
2023-03-26T06:43:07.614Z,100326.63
2023-03-26T06:45:42.432Z,100322.38
2023-03-26T06:48:44.177Z,100324.91
2023-03-26T06:51:41.101Z,100325.22
2023-03-26T06:54:36.652Z,100320.97
2023-03-26T06:57:32.533Z,100319.38
2023-03-26T07:00:20.413Z,100326.16
2023-03-26T07:03:05.601Z,100326.16
2023-03-26T07:05:50.885Z,100324.25
2023-03-26T07:08:36.182Z,100328.38
2023-03-26T07:11:25.303Z,100329.44
2023-03-26T07:14:20.524Z,100319.56
2023-03-26T07:16:59.200Z,100320.75
2023-03-26T07:19:36.588Z,100318.41
2023-03-26T07:22:03.551Z,100309.28
2023-03-26T07:25:08.591Z,100319.03
2023-03-26T07:28:03.711Z,100317.44
2023-03-26T07:30:59.426Z,100315.09
2023-03-26T07:34:04.003Z,100318.03
2023-03-26T07:37:13.370Z,100316.72
2023-03-26T07:40:37.341Z,100316.31
2023-03-26T07:43:51.208Z,100311.00
2023-03-26T07:46:42.627Z,100313.97
2023-03-26T07:49:31.366Z,100312.06
2023-03-26T08:08:29.554Z,100304.03
2023-03-26T08:11:49.716Z,100301.25
2023-03-26T08:14:53.404Z,100304.97
2023-03-26T08:17:45.750Z,100298.06
2023-03-26T08:20:51.565Z,100300.16
2023-03-26T08:23:32.516Z,100302.06
2023-03-26T08:26:12.876Z,100294.53
2023-03-26T08:29:04.138Z,100298.66
2023-03-26T08:31:36.453Z,100298.66
2023-03-26T08:34:03.115Z,100301.31
2023-03-26T08:36:29.784Z,100296.44
2023-03-26T08:38:57.387Z,100299.22
2023-03-26T08:41:37.624Z,100298.50
2023-03-26T08:44:30.288Z,100301.13
2023-03-26T08:47:19.934Z,100296.88
2023-03-26T08:50:10.829Z,100299.22
2023-03-26T08:52:50.386Z,100301.25
2023-03-26T08:55:54.394Z,100302.56
2023-03-26T08:58:40.374Z,100293.88
2023-03-26T09:01:09.736Z,100293.88
2023-03-26T09:04:16.753Z,100303.00
2023-03-26T09:06:43.321Z,100303.84
2023-03-26T09:09:52.157Z,100302.50
2023-03-26T09:12:37.388Z,100302.63
2023-03-26T09:15:24.087Z,100299.66
2023-03-26T09:17:59.579Z,100309.03
2023-03-26T09:20:45.442Z,100304.59
2023-03-26T09:23:44.763Z,100307.69
2023-03-26T09:26:45.778Z,100302.06
2023-03-26T09:29:20.473Z,100304.72
2023-03-26T09:32:05.830Z,100307.50
2023-03-26T09:35:12.497Z,100299.44
2023-03-26T09:38:00.681Z,100310.75
2023-03-26T09:40:44.054Z,100304.59
2023-03-26T09:43:29.393Z,100314.34
2023-03-26T09:46:19.133Z,100315.53
2023-03-26T09:49:04.449Z,100312.88
2023-03-26T09:51:38.546Z,100313.19
2023-03-26T09:54:37.149Z,100314.34
2023-03-26T09:57:16.761Z,100320.69
2023-03-26T09:59:43.258Z,100318.78
2023-03-26T10:02:45.503Z,100327.91
2023-03-26T10:05:30.447Z,100324.22
2023-03-26T10:08:24.951Z,100328.78
2023-03-26T10:11:10.248Z,100331.09
2023-03-26T10:13:52.579Z,100338.00
2023-03-26T10:16:19.022Z,100335.03
2023-03-26T10:19:09.451Z,100336.97
2023-03-26T10:21:42.048Z,100332.81
2023-03-26T10:24:43.852Z,100338.00
2023-03-26T10:27:19.595Z,100339.81
2023-03-26T10:30:23.322Z,100339.06
2023-03-26T10:33:10.644Z,100349.34
2023-03-26T10:35:45.649Z,100352.00
2023-03-26T10:38:30.926Z,100352.84
2023-03-26T10:41:16.760Z,100348.00
2023-03-26T10:44:08.574Z,100352.22
2023-03-26T10:46:54.761Z,100348.41
2023-03-26T10:49:33.843Z,100352.44
2023-03-26T10:52:16.033Z,100353.06
2023-03-26T10:54:48.630Z,100354.41
2023-03-26T10:57:41.397Z,100357.50
2023-03-26T11:00:26.418Z,100358.34
2023-03-26T11:03:41.635Z,100360.38
2023-03-26T11:06:25.700Z,100369.63
2023-03-26T11:09:12.148Z,100369.06
2023-03-26T11:12:26.372Z,100370.56
2023-03-26T11:15:36.400Z,100371.19
2023-03-26T11:18:24.942Z,100368.41
2023-03-26T11:21:18.891Z,100380.50
2023-03-26T11:24:21.815Z,100381.47
2023-03-26T11:26:55.796Z,100381.03
2023-03-26T11:29:56.656Z,100386.53
2023-03-26T11:32:39.183Z,100383.00
2023-03-26T11:35:15.469Z,100384.56
2023-03-26T11:37:46.296Z,100394.00
2023-03-26T11:40:21.395Z,100400.03
2023-03-26T11:42:53.006Z,100396.34
2023-03-26T11:45:24.514Z,100396.13
2023-03-26T11:47:52.825Z,100396.56
2023-03-26T11:50:27.565Z,100405.94
2023-03-26T11:53:03.006Z,100409.13
2023-03-26T11:55:31.359Z,100401.63
2023-03-26T11:58:00.447Z,100406.59
2023-03-26T12:00:28.625Z,100405.84
2023-03-26T12:02:59.187Z,100402.66
2023-03-26T12:05:34.188Z,100408.59
2023-03-26T12:08:04.201Z,100412.16
2023-03-26T12:10:37.864Z,100412.56
2023-03-26T12:13:28.207Z,100412.75
2023-03-26T12:16:01.195Z,100406.91
2023-03-26T12:18:28.521Z,100410.72
2023-03-26T12:21:19.223Z,100420.03
2023-03-26T12:23:56.785Z,100421.41
2023-03-26T12:27:02.126Z,100417.06
2023-03-26T12:29:34.394Z,100415.75
2023-03-26T12:32:07.731Z,100428.34
2023-03-26T12:34:39.336Z,100424.25
2023-03-26T12:37:08.479Z,100434.63
2023-03-26T12:40:07.035Z,100430.06
2023-03-26T12:44:46.458Z,100437.16
2023-03-26T12:45:31.456Z,100431.13
2023-03-26T12:48:03.733Z,100438.53
2023-03-26T12:50:54.715Z,100443.41
2023-03-26T12:53:35.324Z,100440.16
2023-03-26T12:56:19.861Z,100448.13
2023-03-26T12:59:15.667Z,100458.78
2023-03-26T13:01:50.312Z,100450.28
2023-03-26T13:04:34.073Z,100454.59
2023-03-26T13:07:34.260Z,100458.91
2023-03-26T13:10:37.101Z,100460.88
2023-03-26T13:13:33.721Z,100465.16
2023-03-26T13:16:19.648Z,100462.06
2023-03-26T13:18:56.501Z,100461.81
2023-03-26T13:21:48.561Z,100472.59
2023-03-26T13:24:33.845Z,100472.59
2023-03-26T13:27:13.313Z,100472.88
2023-03-26T13:30:21.808Z,100469.47
2023-03-26T13:33:12.809Z,100478.19
2023-03-26T13:36:06.778Z,100486.63
2023-03-26T13:38:58.975Z,100482.66
2023-03-26T13:41:36.163Z,100488.28
2023-03-26T13:44:19.131Z,100480.31
2023-03-26T13:47:10.884Z,100495.06
2023-03-26T13:49:42.675Z,100486.22
2023-03-26T13:52:30.762Z,100491.41
2023-03-26T13:55:32.393Z,100498.09
2023-03-26T13:58:06.102Z,100494.38
2023-03-26T14:01:07.125Z,100498.66
2023-03-26T14:03:42.929Z,100497.97
2023-03-26T14:06:17.836Z,100499.75
2023-03-26T14:08:54.900Z,100506.94
2023-03-26T14:11:38.776Z,100511.06
2023-03-26T14:14:14.562Z,100523.50
2023-03-26T14:16:50.663Z,100523.63
2023-03-26T14:19:32.032Z,100523.78
2023-03-26T14:22:38.062Z,100521.69
2023-03-26T14:25:18.663Z,100534.97
2023-03-26T14:28:13.986Z,100536.28
2023-03-26T14:31:08.203Z,100536.53
2023-03-26T14:33:59.526Z,100537.84
2023-03-26T14:36:58.992Z,100538.47
2023-03-26T14:39:40.713Z,100551.31
2023-03-26T14:42:47.973Z,100549.81
2023-03-26T14:45:33.206Z,100557.19
2023-03-26T14:48:29.912Z,100574.31
2023-03-26T14:51:08.914Z,100576.03
2023-03-26T14:53:43.693Z,100588.38
2023-03-26T14:56:37.989Z,100588.66
2023-03-26T14:59:43.443Z,100600.78
2023-03-26T15:02:47.628Z,100601.47
2023-03-26T15:05:32.670Z,100595.56
2023-03-26T15:08:20.387Z,100605.50
2023-03-26T15:10:59.685Z,100608.41
2023-03-26T15:13:55.269Z,100609.69
2023-03-26T15:16:34.510Z,100625.63
2023-03-26T15:19:40.541Z,100624.75
2023-03-26T15:22:26.225Z,100619.63
2023-03-26T15:25:04.592Z,100625.34
2023-03-26T15:28:05.602Z,100627.25
2023-03-26T15:31:16.457Z,100625.16
2023-03-26T15:34:07.647Z,100634.16
2023-03-26T15:36:53.157Z,100642.78
2023-03-26T15:39:29.950Z,100645.44
2023-03-26T15:42:17.791Z,100650.66
2023-03-26T15:45:00.556Z,100654.69
2023-03-26T15:47:50.986Z,100661.28
2023-03-26T15:50:31.950Z,100671.06
2023-03-26T15:53:19.784Z,100673.50
2023-03-26T15:56:22.071Z,100683.44
2023-03-26T15:58:48.371Z,100690.44
2023-03-26T16:01:32.609Z,100692.78
2023-03-26T16:04:17.664Z,100701.59
2023-03-26T16:06:53.949Z,100691.41
2023-03-26T16:09:48.462Z,100714.75
2023-03-26T16:12:17.541Z,100725.25
2023-03-26T16:15:05.674Z,100731.81
2023-03-26T16:18:05.213Z,100719.81
2023-03-26T16:20:35.484Z,100731.69
2023-03-26T16:23:06.970Z,100730.09
2023-03-26T16:25:35.592Z,100736.34
2023-03-26T16:28:11.436Z,100740.16
2023-03-26T16:30:39.057Z,100745.88
2023-03-26T16:33:15.410Z,100746.00
2023-03-26T16:36:02.082Z,100757.09
2023-03-26T16:38:54.781Z,100764.44
2023-03-26T16:41:26.840Z,100771.09
2023-03-26T16:44:10.688Z,100779.13
2023-03-26T16:46:48.727Z,100782.63
2023-03-26T16:49:44.731Z,100789.19
2023-03-26T16:52:20.375Z,100793.41
2023-03-26T16:55:26.365Z,100807.72
2023-03-26T16:58:29.396Z,100805.25
2023-03-26T17:01:15.901Z,100821.66
2023-03-26T17:03:57.785Z,100827.47
2023-03-26T17:06:47.295Z,100844.22
2023-03-26T17:09:34.326Z,100839.06
2023-03-26T17:12:15.792Z,100851.66
2023-03-26T17:14:48.815Z,100855.31
2023-03-26T17:17:33.365Z,100857.28
2023-03-26T17:20:09.338Z,100857.09
2023-03-26T17:22:45.084Z,100862.19
2023-03-26T17:25:37.411Z,100870.59
2023-03-26T17:28:39.692Z,100884.75
2023-03-26T17:31:40.280Z,100891.59
2023-03-26T17:34:54.169Z,100895.06
2023-03-26T17:37:31.288Z,100902.00
2023-03-26T17:39:57.759Z,100907.69
2023-03-26T17:42:32.534Z,100911.16
2023-03-26T17:45:07.926Z,100927.03
2023-03-26T17:47:38.230Z,100917.75
2023-03-26T17:50:13.344Z,100921.53
2023-03-26T17:53:02.862Z,100918.56
2023-03-26T17:55:32.325Z,100933.03
2023-03-26T17:58:04.797Z,100937.66
2023-03-26T18:00:35.573Z,100943.41
2023-03-26T18:03:12.712Z,100947.97
2023-03-26T18:05:39.975Z,100958.25
2023-03-26T18:08:24.432Z,100957.19
2023-03-26T18:10:57.123Z,100956.22
2023-03-26T18:14:00.579Z,100969.56
2023-03-26T18:16:53.137Z,100982.19
2023-03-26T18:19:22.799Z,100984.94
2023-03-26T18:21:51.271Z,100982.75
2023-03-26T18:24:25.051Z,100990.00
2023-03-26T18:27:03.350Z,100994.19
2023-03-26T18:29:32.183Z,101006.19
2023-03-26T18:32:09.549Z,101004.69
2023-03-26T18:34:49.855Z,101015.69
2023-03-26T18:37:22.540Z,101019.47
2023-03-26T18:40:15.317Z,101022.13
2023-03-26T18:42:46.973Z,101030.09
2023-03-26T18:45:27.862Z,101042.56
2023-03-26T18:48:22.539Z,101049.75
2023-03-26T18:51:05.385Z,101055.44
2023-03-26T18:53:39.469Z,101062.25
2023-03-26T18:56:36.675Z,101069.84
2023-03-26T18:59:06.695Z,101079.72
2023-03-26T19:01:36.537Z,101086.97
2023-03-26T19:04:08.405Z,101089.72
2023-03-26T19:06:38.463Z,101093.16
2023-03-26T19:09:16.268Z,101100.03
2023-03-26T19:11:49.134Z,101092.53
2023-03-26T19:14:20.439Z,101094.47
2023-03-26T19:16:56.080Z,101099.06
2023-03-26T19:19:28.640Z,101101.69
2023-03-26T19:21:58.392Z,101110.38
2023-03-26T19:24:26.971Z,101115.66
2023-03-26T19:26:53.552Z,101122.81
2023-03-26T19:29:28.591Z,101129.25
2023-03-26T19:32:06.231Z,101127.34
2023-03-26T19:34:38.454Z,101137.97
2023-03-26T19:37:17.952Z,101138.41
2023-03-26T19:39:47.735Z,101146.41
2023-03-26T19:42:27.553Z,101149.09
2023-03-26T19:45:22.858Z,101149.16
2023-03-26T19:48:03.458Z,101165.03
2023-03-26T19:50:36.453Z,101170.72
2023-03-26T19:53:25.305Z,101176.03
2023-03-26T19:55:54.196Z,101174.16
2023-03-26T19:58:21.257Z,101175.31
2023-03-26T20:00:47.796Z,101185.50
2023-03-26T20:03:16.747Z,101182.50
2023-03-26T20:05:43.480Z,101190.84
2023-03-26T20:08:14.610Z,101189.34
2023-03-26T20:10:42.502Z,101197.66
2023-03-26T20:13:17.179Z,101206.31
2023-03-26T20:16:06.077Z,101205.59
2023-03-26T20:18:34.179Z,101209.41
2023-03-26T20:21:00.770Z,101209.00
2023-03-26T20:23:28.951Z,101223.34
2023-03-26T20:25:56.200Z,101225.63
2023-03-26T20:28:24.262Z,101231.28
2023-03-26T20:30:51.231Z,101225.66
2023-03-26T20:33:25.766Z,101236.94
2023-03-26T20:35:54.642Z,101231.31
2023-03-26T20:38:32.942Z,101238.13
2023-03-26T20:41:06.194Z,101244.91
2023-03-26T20:43:38.061Z,101240.41
2023-03-26T20:46:04.498Z,101252.09
2023-03-26T20:48:31.533Z,101261.94
2023-03-26T20:50:58.136Z,101270.63
2023-03-26T20:53:24.935Z,101266.50
2023-03-26T20:55:51.750Z,101275.59
2023-03-26T20:58:31.960Z,101283.13
2023-03-26T21:01:02.222Z,101282.78
2023-03-26T21:03:29.115Z,101286.56
2023-03-26T21:06:00.104Z,101288.47
2023-03-26T21:08:30.060Z,101287.72
2023-03-26T21:11:01.996Z,101294.88
2023-03-26T21:13:37.245Z,101286.25
2023-03-26T21:16:04.839Z,101293.03
2023-03-26T21:18:31.834Z,101296.06
2023-03-26T21:21:21.032Z,101301.72
2023-03-26T21:24:03.258Z,101311.53
2023-03-26T21:26:32.131Z,101308.94
2023-03-26T21:28:59.213Z,101310.81
2023-03-26T21:31:28.351Z,101318.38
2023-03-26T21:33:55.249Z,101313.84
2023-03-26T21:36:22.861Z,101317.63
2023-03-26T21:38:50.436Z,101318.00
2023-03-26T21:41:23.111Z,101327.06
2023-03-26T21:43:50.613Z,101328.56
2023-03-26T21:46:17.510Z,101338.34
2023-03-26T21:48:44.476Z,101341.75
2023-03-26T21:51:14.816Z,101345.53
2023-03-26T21:53:42.934Z,101357.56
2023-03-26T21:56:41.207Z,101361.72
2023-03-26T21:59:30.367Z,101362.47
2023-03-26T22:02:15.326Z,101372.25
2023-03-26T22:04:51.850Z,101369.97
2023-03-26T22:07:35.722Z,101383.53
2023-03-26T22:10:02.216Z,101387.66
2023-03-26T22:12:28.705Z,101390.69
2023-03-26T22:14:55.150Z,101400.84
2023-03-26T22:17:22.805Z,101392.56
2023-03-26T22:19:49.289Z,101393.31
2023-03-26T22:22:15.803Z,101400.09
2023-03-26T22:24:42.570Z,101404.97
2023-03-26T22:27:09.193Z,101410.63
2023-03-26T22:29:35.641Z,101415.53
2023-03-26T22:32:03.415Z,101412.13
2023-03-26T22:34:30.606Z,101412.50
2023-03-26T22:36:57.247Z,101424.19
2023-03-26T22:39:23.729Z,101414.03
2023-03-26T22:41:50.198Z,101428.72
2023-03-26T22:44:20.283Z,101433.97
2023-03-26T22:46:49.285Z,101438.50
2023-03-26T22:49:16.424Z,101431.72
2023-03-26T22:51:43.520Z,101453.56
2023-03-26T22:54:10.293Z,101441.16
2023-03-26T22:56:37.061Z,101447.91
2023-03-26T22:59:03.889Z,101452.81
2023-03-26T23:01:30.518Z,101452.81
2023-03-26T23:03:57.599Z,101463.34
2023-03-26T23:06:24.217Z,101467.84
2023-03-26T23:08:51.265Z,101471.63
2023-03-26T23:11:20.279Z,101479.50
2023-03-26T23:13:47.468Z,101480.28
2023-03-26T23:16:15.249Z,101478.00
2023-03-26T23:18:42.545Z,101485.16
2023-03-26T23:21:18.176Z,101482.53
2023-03-26T23:23:45.510Z,101493.44
2023-03-26T23:26:12.402Z,101498.69
2023-03-26T23:28:38.975Z,101503.97
2023-03-26T23:31:08.933Z,101500.19
2023-03-26T23:33:37.848Z,101504.34
2023-03-26T23:36:10.370Z,101505.47
2023-03-26T23:38:43.382Z,101517.91
2023-03-26T23:41:15.652Z,101528.06
2023-03-26T23:43:54.295Z,101522.41
2023-03-26T23:46:32.968Z,101532.94
2023-03-26T23:49:02.085Z,101533.69
2023-03-26T23:51:30.289Z,101543.47
2023-03-26T23:53:57.659Z,101550.59
2023-03-26T23:56:24.370Z,101548.72
2023-03-26T23:58:50.915Z,101549.09
